createdAt,value
2023-03-22T00:01:19.888Z,30.00
2023-03-22T00:03:48.827Z,30.30
2023-03-22T00:06:19.358Z,26.80
2023-03-22T00:08:51.726Z,31.60
2023-03-22T00:11:21.244Z,31.50
2023-03-22T00:13:52.828Z,30.80
2023-03-22T00:16:22.182Z,29.80
2023-03-22T00:19:02.788Z,32.00
2023-03-22T00:23:59.295Z,31.80
2023-03-22T00:26:27.384Z,28.90
2023-03-22T00:28:55.402Z,31.00
2023-03-22T00:31:23.633Z,30.10
2023-03-22T00:33:52.362Z,31.70
2023-03-22T00:36:20.535Z,27.10
2023-03-22T00:38:52.265Z,28.70
2023-03-22T00:41:22.643Z,27.40
2023-03-22T00:43:56.871Z,30.70
2023-03-22T00:46:26.242Z,27.90
2023-03-22T00:48:54.472Z,27.50
2023-03-22T00:51:24.597Z,27.50
2023-03-22T00:53:54.284Z,29.70
2023-03-22T00:56:25.638Z,25.90
2023-03-22T00:59:01.733Z,31.80
2023-03-22T01:01:32.059Z,28.90
2023-03-22T01:04:00.901Z,27.70
2023-03-22T01:06:29.840Z,25.70
2023-03-22T01:08:57.965Z,25.60
2023-03-22T01:13:55.844Z,27.00
2023-03-22T01:16:25.014Z,25.50
2023-03-22T01:23:51.706Z,27.30
2023-03-22T01:26:21.000Z,24.40
2023-03-22T01:28:49.942Z,25.20
2023-03-22T01:31:18.175Z,25.00
2023-03-22T01:33:46.399Z,26.30
2023-03-22T01:36:14.711Z,25.60
2023-03-22T01:38:42.886Z,29.60
2023-03-22T01:41:11.198Z,27.90
2023-03-22T01:43:41.166Z,24.40
2023-03-22T01:46:09.348Z,23.60
2023-03-22T01:48:46.252Z,25.90
2023-03-22T01:51:20.611Z,24.10
2023-03-22T01:54:24.006Z,23.40
2023-03-22T01:56:53.337Z,28.90
2023-03-22T01:59:30.775Z,24.80
2023-03-22T02:02:31.576Z,24.10
2023-03-22T02:05:09.133Z,25.10
2023-03-22T02:07:37.608Z,26.60
2023-03-22T02:10:25.083Z,25.60
2023-03-22T02:13:16.339Z,23.20
2023-03-22T02:16:00.558Z,25.60
2023-03-22T02:19:08.640Z,25.10
2023-03-22T02:22:01.780Z,25.20
2023-03-22T02:24:48.602Z,26.20
2023-03-22T02:27:58.626Z,28.50
2023-03-22T02:30:36.411Z,28.40
2023-03-22T02:33:32.550Z,25.80
2023-03-22T02:36:23.527Z,24.20
2023-03-22T02:39:21.277Z,26.80
2023-03-22T02:42:32.587Z,25.80
2023-03-22T02:45:21.597Z,25.50
2023-03-22T02:47:56.603Z,24.50
2023-03-22T02:50:26.195Z,25.50
2023-03-22T02:53:02.090Z,24.90
2023-03-22T02:55:35.514Z,23.70
2023-03-22T02:58:22.109Z,23.20
2023-03-22T03:00:56.565Z,22.90
2023-03-22T03:03:29.474Z,23.10
2023-03-22T03:06:01.259Z,23.90
2023-03-22T03:08:29.668Z,24.20
2023-03-22T03:11:00.263Z,21.70
2023-03-22T03:15:59.621Z,26.20
2023-03-22T03:18:48.988Z,24.70
2023-03-22T03:21:50.974Z,24.20
2023-03-22T03:24:33.461Z,22.70
2023-03-22T03:27:23.864Z,24.70
2023-03-22T03:30:14.286Z,22.00
2023-03-22T03:32:56.879Z,24.00
2023-03-22T03:35:46.210Z,22.70
2023-03-22T03:38:18.669Z,23.80
2023-03-22T03:40:49.299Z,21.90
2023-03-22T03:43:17.745Z,21.00
2023-03-22T03:45:47.504Z,23.00
2023-03-22T03:50:50.292Z,23.80
2023-03-22T03:53:18.663Z,23.60
2023-03-22T03:55:46.863Z,26.20
2023-03-22T03:58:18.543Z,23.40
2023-03-22T04:00:47.498Z,23.20
2023-03-22T04:03:46.715Z,22.90
2023-03-22T04:06:35.469Z,24.40
2023-03-22T04:09:09.895Z,26.80
2023-03-22T04:11:44.518Z,25.80
2023-03-22T04:14:14.708Z,23.80
2023-03-22T04:16:42.948Z,23.00
2023-03-22T04:19:14.424Z,22.50
2023-03-22T04:24:11.346Z,22.90
2023-03-22T04:26:42.815Z,24.80
2023-03-22T04:29:38.499Z,24.80
2023-03-22T04:32:31.697Z,26.00
2023-03-22T04:35:01.538Z,24.90
2023-03-22T04:37:34.210Z,24.90
2023-03-22T04:40:21.484Z,28.30
2023-03-22T04:43:04.226Z,28.70
2023-03-22T04:45:48.962Z,25.30
2023-03-22T04:48:22.420Z,29.30
2023-03-22T04:50:53.615Z,24.80
2023-03-22T04:53:27.632Z,28.60
2023-03-22T04:55:59.101Z,24.70
2023-03-22T04:58:28.541Z,28.50
2023-03-22T05:00:56.694Z,28.30
2023-03-22T05:03:26.431Z,26.80
2023-03-22T05:08:26.191Z,27.40
2023-03-22T05:10:56.263Z,30.30
2023-03-22T05:13:26.433Z,26.30
2023-03-22T05:16:05.140Z,30.10
2023-03-22T05:18:46.095Z,28.60
2023-03-22T05:21:15.678Z,25.30
2023-03-22T05:23:45.997Z,25.90
2023-03-22T05:28:46.263Z,20.20
2023-03-22T05:31:22.214Z,23.40
2023-03-22T05:34:04.004Z,25.80
2023-03-22T05:36:36.680Z,23.70
2023-03-22T05:39:29.993Z,22.40
2023-03-22T05:41:58.261Z,23.30
2023-03-22T05:44:26.946Z,22.40
2023-03-22T05:47:07.058Z,24.30
2023-03-22T05:49:38.309Z,20.60
2023-03-22T05:52:09.174Z,20.50
2023-03-22T05:54:56.081Z,22.60
2023-03-22T05:59:54.128Z,21.90
2023-03-22T06:02:27.229Z,49.90
2023-03-22T06:04:59.839Z,57.00
2023-03-22T06:07:29.046Z,71.00
2023-03-22T06:10:02.201Z,38.10
2023-03-22T06:12:33.124Z,52.90
2023-03-22T06:15:08.520Z,25.70
2023-03-22T06:17:43.216Z,23.60
2023-03-22T06:20:17.984Z,29.50
2023-03-22T06:22:54.971Z,48.80
2023-03-22T06:25:24.203Z,45.20
2023-03-22T06:27:52.604Z,21.40
2023-03-22T06:30:26.289Z,21.20
2023-03-22T06:33:21.819Z,23.40
2023-03-22T06:35:54.831Z,24.20
2023-03-22T06:38:30.405Z,30.60
2023-03-22T06:40:59.190Z,43.50
2023-03-22T06:43:27.830Z,33.00
2023-03-22T06:46:03.572Z,25.00
2023-03-22T06:48:36.325Z,23.70
2023-03-22T06:51:12.452Z,21.60
2023-03-22T06:53:41.426Z,24.10
2023-03-22T06:56:12.400Z,21.00
2023-03-22T06:58:48.027Z,23.90
2023-03-22T07:01:16.386Z,24.50
2023-03-22T07:03:46.092Z,24.50
2023-03-22T07:06:16.595Z,25.10
2023-03-22T07:08:47.992Z,23.20
2023-03-22T07:11:20.395Z,24.70
2023-03-22T07:13:57.201Z,25.20
2023-03-22T07:16:26.609Z,21.80
2023-03-22T07:19:03.505Z,27.50
2023-03-22T07:21:32.985Z,26.80
2023-03-22T07:24:07.001Z,21.90
2023-03-22T07:26:35.208Z,21.10
2023-03-22T07:29:04.332Z,21.60
2023-03-22T07:31:38.356Z,23.10
2023-03-22T07:34:27.341Z,18.70
2023-03-22T07:37:15.782Z,22.70
2023-03-22T07:39:43.932Z,21.10
2023-03-22T07:42:12.892Z,21.20
2023-03-22T07:44:43.997Z,21.70
2023-03-22T07:47:37.733Z,23.90
2023-03-22T07:50:20.443Z,26.90
2023-03-22T07:52:52.752Z,29.30
2023-03-22T07:55:20.891Z,32.90
2023-03-22T07:57:48.887Z,33.40
2023-03-22T08:00:17.329Z,33.80
2023-03-22T08:02:50.424Z,31.50
2023-03-22T08:05:35.000Z,28.80
2023-03-22T08:08:04.299Z,25.00
2023-03-22T08:10:33.041Z,24.50
2023-03-22T08:13:02.312Z,22.30
2023-03-22T08:15:32.157Z,19.60
2023-03-22T08:20:35.539Z,17.90
2023-03-22T08:23:12.605Z,20.80
2023-03-22T08:26:04.363Z,22.10
2023-03-22T08:28:34.144Z,19.70
2023-03-22T08:31:02.674Z,21.20
2023-03-22T08:33:31.201Z,19.20
2023-03-22T08:36:09.257Z,15.80
2023-03-22T08:38:45.953Z,14.90
2023-03-22T08:41:16.285Z,16.80
2023-03-22T08:43:44.829Z,15.30
2023-03-22T08:46:13.897Z,18.30
2023-03-22T08:48:50.645Z,17.80
2023-03-22T08:51:31.997Z,16.60
2023-03-22T08:54:13.755Z,16.70
2023-03-22T08:56:50.719Z,14.50
2023-03-22T08:59:27.304Z,14.90
2023-03-22T09:02:16.529Z,16.20
2023-03-22T09:04:45.048Z,15.40
2023-03-22T09:07:14.274Z,14.10
2023-03-22T09:09:44.406Z,15.40
2023-03-22T09:12:14.730Z,14.50
2023-03-22T09:14:43.191Z,13.20
2023-03-22T09:17:13.109Z,13.40
2023-03-22T09:19:41.375Z,17.70
2023-03-22T09:22:09.643Z,13.20
2023-03-22T09:24:46.828Z,13.90
2023-03-22T09:27:14.854Z,15.00
2023-03-22T09:32:17.382Z,19.50
2023-03-22T09:34:48.860Z,20.10
2023-03-22T09:37:21.841Z,14.80
2023-03-22T09:39:54.587Z,14.30
2023-03-22T09:42:34.319Z,15.70
2023-03-22T09:45:08.129Z,15.60
2023-03-22T09:47:44.720Z,14.10
2023-03-22T09:50:31.795Z,13.50
2023-03-22T09:53:00.575Z,12.50
2023-03-22T09:55:41.695Z,14.20
2023-03-22T09:58:24.888Z,13.70
2023-03-22T10:01:01.587Z,11.00
2023-03-22T10:03:37.227Z,11.10
2023-03-22T10:06:13.593Z,11.70
2023-03-22T10:09:30.029Z,16.20
2023-03-22T10:12:05.748Z,12.90
2023-03-22T10:14:48.948Z,12.50
2023-03-22T10:17:19.680Z,11.30
2023-03-22T10:20:09.169Z,9.70
2023-03-22T10:22:42.783Z,13.70
2023-03-22T10:25:16.301Z,11.10
2023-03-22T10:27:47.534Z,10.50
2023-03-22T10:30:24.502Z,11.00
2023-03-22T10:33:04.173Z,11.30
2023-03-22T10:35:37.328Z,10.80
2023-03-22T10:38:19.246Z,12.90
2023-03-22T10:40:47.831Z,10.10
2023-03-22T10:43:38.373Z,10.40
2023-03-22T10:46:09.200Z,9.60
2023-03-22T10:48:48.206Z,15.00
2023-03-22T10:51:29.981Z,9.30
2023-03-22T10:53:58.773Z,7.30
2023-03-22T10:56:27.096Z,5.50
2023-03-22T10:59:01.005Z,6.60
2023-03-22T11:01:32.431Z,25.20
2023-03-22T11:04:04.189Z,24.70
2023-03-22T11:06:39.438Z,7.70
2023-03-22T11:09:13.316Z,8.90
2023-03-22T11:11:55.541Z,7.70
2023-03-22T11:14:28.588Z,7.40
2023-03-22T11:17:14.104Z,7.30
2023-03-22T11:20:13.942Z,8.00
2023-03-22T11:22:47.120Z,8.30
2023-03-22T11:25:22.469Z,7.70
2023-03-22T11:27:56.264Z,8.60
2023-03-22T11:30:28.860Z,7.30
2023-03-22T11:33:17.297Z,9.30
2023-03-22T11:35:54.709Z,7.30
2023-03-22T11:38:24.297Z,6.90
2023-03-22T11:40:55.191Z,6.20
2023-03-22T11:43:39.082Z,6.60
2023-03-22T11:46:09.175Z,6.60
2023-03-22T11:48:37.595Z,7.50
2023-03-22T11:51:12.056Z,7.40
2023-03-22T11:53:48.179Z,6.00
2023-03-22T11:56:18.220Z,5.80
2023-03-22T11:58:56.382Z,5.30
2023-03-22T12:01:32.229Z,5.80
2023-03-22T12:04:00.846Z,5.40
2023-03-22T12:09:00.843Z,6.30
2023-03-22T12:11:47.159Z,5.40
2023-03-22T12:14:52.022Z,4.80
2023-03-22T12:17:31.350Z,6.20
2023-03-22T12:20:23.028Z,4.30
2023-03-22T12:22:57.125Z,5.40
2023-03-22T12:25:27.702Z,3.90
2023-03-22T12:28:07.755Z,5.70
2023-03-22T12:30:50.029Z,4.30
2023-03-22T12:33:43.438Z,4.70
2023-03-22T12:36:15.549Z,4.10
2023-03-22T12:38:51.188Z,3.90
2023-03-22T12:41:28.228Z,6.30
2023-03-22T12:44:01.850Z,5.20
2023-03-22T12:47:15.994Z,5.30
2023-03-22T12:49:54.458Z,3.60
2023-03-22T12:52:45.509Z,3.70
2023-03-22T12:55:21.355Z,4.00
2023-03-22T12:57:52.635Z,4.20
2023-03-22T13:00:28.778Z,4.80
2023-03-22T13:03:21.136Z,4.50
2023-03-22T13:05:52.303Z,4.70
2023-03-22T13:08:21.694Z,5.70
2023-03-22T13:10:50.881Z,5.00
2023-03-22T13:13:22.121Z,4.80
2023-03-22T13:16:12.712Z,5.30
2023-03-22T13:18:43.961Z,5.40
2023-03-22T13:21:15.103Z,7.40
2023-03-22T13:24:19.652Z,4.20
2023-03-22T13:26:54.287Z,4.00
2023-03-22T13:29:34.434Z,3.90
2023-03-22T13:32:30.066Z,4.50
2023-03-22T13:34:58.121Z,3.60
2023-03-22T13:40:59.527Z,5.80
2023-03-22T13:43:46.345Z,6.60
2023-03-22T13:46:19.879Z,5.00
2023-03-22T13:48:55.402Z,6.10
2023-03-22T13:51:25.425Z,7.50
2023-03-22T13:54:08.874Z,7.40
2023-03-22T13:56:57.341Z,7.20
2023-03-22T14:02:05.018Z,11.40
2023-03-22T14:04:56.196Z,7.30
2023-03-22T14:07:31.550Z,7.50
2023-03-22T14:10:03.643Z,7.30
2023-03-22T14:13:14.436Z,6.40
2023-03-22T14:15:47.098Z,7.60
2023-03-22T14:18:28.765Z,8.40
2023-03-22T14:21:03.873Z,11.30
